Time;durP1;ratioP1;P1;durP2;ratioP2;P2;SDS_P1;SDS_P2;PMS_P1;PMS_P2;Temp;Humidity;BMP_temperature;BMP_pressure;BME280_temperature;BME280_humidity;BME280_pressure;Samples;Min_cycle;Max_cycle;Signal;HPM_P1;HPM_P2
2021/01/26 00:01:02;;;;;;;19.38;4.85;;;;;;;6.02;71.61;101172.97;5008818;28;20037;-80
2021/01/26 00:03:29;;;;;;;14.05;4.63;;;;;;;5.99;71.77;101163.31;5008318;28;20017;-80
2021/01/26 00:05:55;;;;;;;16.15;4.20;;;;;;;5.91;71.87;101175.53;5010105;28;20448;-81
2021/01/26 00:08:23;;;;;;;19.23;3.92;;;;;;;5.89;71.76;101188.66;5010838;28;20052;-81
2021/01/26 00:10:50;;;;;;;16.23;3.30;;;;;;;5.81;71.68;101172.84;5011365;28;20069;-81
2021/01/26 00:13:19;;;;;;;13.30;3.33;;;;;;;5.96;70.73;101185.19;5007095;28;20022;-81
2021/01/26 00:15:48;;;;;;;16.63;3.38;;;;;;;5.77;70.49;101173.72;5003763;28;20034;-82
2021/01/26 00:18:14;;;;;;;12.23;2.97;;;;;;;5.87;70.75;101168.50;5007857;28;20420;-82
2021/01/26 00:20:43;;;;;;;20.40;3.38;;;;;;;5.96;70.58;101163.28;5007191;28;20030;-82
2021/01/26 00:23:11;;;;;;;13.07;2.67;;;;;;;5.78;71.03;101170.22;5010189;28;20030;-81
2021/01/26 00:25:39;;;;;;;6.97;2.67;;;;;;;5.87;70.96;101171.13;5008014;28;20508;-82
2021/01/26 00:28:08;;;;;;;14.90;3.17;;;;;;;5.86;70.84;101172.00;5003057;28;20080;-82
2021/01/26 00:30:36;;;;;;;18.63;3.05;;;;;;;6.05;70.27;101165.13;5009094;28;20449;-82
2021/01/26 00:33:06;;;;;;;11.75;2.83;;;;;;;6.01;70.52;101171.22;5005002;28;20384;-81
2021/01/26 00:35:33;;;;;;;20.73;3.55;;;;;;;5.92;70.74;101174.66;5010560;28;20037;-82
2021/01/26 00:38:01;;;;;;;25.25;4.00;;;;;;;5.67;71.77;101171.94;5008356;28;20030;-82
2021/01/26 00:40:29;;;;;;;19.25;3.85;;;;;;;5.81;71.80;101164.97;5006825;28;20030;-82
2021/01/26 00:42:57;;;;;;;23.95;4.97;;;;;;;6.19;71.00;101170.41;4990800;28;20080;-82
2021/01/26 00:45:26;;;;;;;33.08;4.72;;;;;;;6.09;71.43;101161.59;5005885;28;20080;-84
2021/01/26 00:47:53;;;;;;;16.52;4.47;;;;;;;6.01;71.91;101187.88;5001409;28;20026;-82
2021/01/26 00:50:21;;;;;;;27.13;6.38;;;;;;;6.13;71.72;101177.41;5008739;28;20026;-82
2021/01/26 00:52:48;;;;;;;30.67;6.00;;;;;;;6.17;71.68;101174.78;5004235;28;20058;-82
2021/01/26 00:55:17;;;;;;;20.95;4.18;;;;;;;6.33;71.33;101173.97;5002449;28;20019;-82
2021/01/26 00:57:44;;;;;;;21.52;5.05;;;;;;;6.36;71.06;101194.16;5003022;28;20053;-82
2021/01/26 01:00:19;;;;;;;20.27;4.60;;;;;;;6.31;71.57;101181.84;5002773;28;20037;-82
2021/01/26 01:02:46;;;;;;;23.20;4.40;;;;;;;6.34;71.16;101194.13;5006967;28;20030;-82
2021/01/26 01:05:13;;;;;;;17.50;3.05;;;;;;;6.22;71.13;101192.34;5004456;28;20504;-82
2021/01/26 01:07:40;;;;;;;19.48;5.45;;;;;;;6.29;70.91;101198.50;5003551;28;20037;-82
2021/01/26 01:10:08;;;;;;;17.50;3.63;;;;;;;6.34;70.66;101193.28;5000573;28;20596;-81
2021/01/26 01:12:35;;;;;;;21.77;4.35;;;;;;;6.29;70.41;101211.66;5005312;28;20036;-82
2021/01/26 01:15:02;;;;;;;23.45;3.95;;;;;;;6.21;70.43;101205.53;5005635;28;20380;-82
2021/01/26 01:17:28;;;;;;;11.60;3.05;;;;;;;6.15;70.09;101228.28;5000775;28;20125;-82
2021/01/26 01:19:55;;;;;;;13.70;2.47;;;;;;;6.10;69.61;101213.34;5000680;28;20038;-82
2021/01/26 01:22:22;;;;;;;8.45;1.67;;;;;;;6.03;68.98;101228.25;5005773;28;20088;-82
2021/01/26 01:24:48;;;;;;;10.02;2.25;;;;;;;5.99;68.38;101234.34;5006973;28;20050;-82
2021/01/26 01:27:15;;;;;;;8.18;1.52;;;;;;;6.02;67.55;101234.38;5007159;28;20031;-82
2021/01/26 01:29:41;;;;;;;6.15;1.13;;;;;;;5.98;67.25;101236.09;5011836;28;20026;-82
2021/01/26 01:32:17;;;;;;;10.15;1.33;;;;;;;5.99;67.26;101232.59;5012246;28;20473;-82
2021/01/26 01:34:45;;;;;;;15.05;1.85;;;;;;;5.98;67.55;101230.84;5007043;28;20229;-82
2021/01/26 01:37:12;;;;;;;6.28;2.15;;;;;;;5.88;67.93;101243.91;5007405;28;20030;-82
2021/01/26 01:39:38;;;;;;;14.57;1.92;;;;;;;5.86;68.59;101243.00;5012005;28;20049;-82
2021/01/26 01:42:16;;;;;;;7.95;2.65;;;;;;;5.90;69.08;101248.28;5011730;28;20026;-82
2021/01/26 01:44:43;;;;;;;14.20;3.45;;;;;;;5.98;69.08;101245.69;5009974;28;20630;-82
2021/01/26 01:47:19;;;;;;;11.80;2.42;;;;;;;5.93;69.83;101252.69;5007899;28;20029;-83
2021/01/26 01:49:47;;;;;;;16.38;2.58;;;;;;;5.87;70.12;101255.28;5011689;28;20036;-82
2021/01/26 01:52:24;;;;;;;13.85;2.75;;;;;;;6.21;69.38;101255.50;5011219;28;20026;-82
2021/01/26 01:54:58;;;;;;;16.95;2.38;;;;;;;6.10;69.88;101261.56;5012461;28;20084;-82
2021/01/26 01:57:32;;;;;;;16.70;2.42;;;;;;;6.26;69.42;101259.91;5011605;28;20072;-83
2021/01/26 02:00:05;;;;;;;24.85;3.45;;;;;;;6.24;69.70;101266.03;5008184;28;20388;-82
2021/01/26 02:02:32;;;;;;;20.77;4.35;;;;;;;6.30;69.29;101289.75;5006709;28;20139;-82
2021/01/26 02:05:03;;;;;;;14.20;3.10;;;;;;;6.46;69.36;101282.81;5006527;28;20481;-82
2021/01/26 02:07:33;;;;;;;18.20;2.50;;;;;;;6.66;68.97;101260.94;5005425;28;20380;-82
2021/01/26 02:10:00;;;;;;;14.50;2.92;;;;;;;6.85;68.18;101267.13;5005593;28;20041;-82
2021/01/26 02:12:27;;;;;;;12.77;2.30;;;;;;;6.87;68.06;101265.38;5009625;28;20026;-83
2021/01/26 02:14:58;;;;;;;15.15;2.42;;;;;;;6.86;67.87;101274.16;5006567;28;20031;-82
2021/01/26 02:18:04;;;;;;;13.93;2.20;;;;;;;6.88;67.62;101277.66;5007518;28;20030;-82
2021/01/26 02:23:55;;;;;;;15.18;3.00;;;;;;;6.48;69.13;101287.19;5074097;27;20863;-81
2021/01/26 02:26:57;;;;;;;18.27;3.20;;;;;;;6.53;68.64;101296.88;5057702;28;20039;-82
2021/01/26 02:35:55;;;;;;;11.10;1.77;;;;;;;6.31;67.52;101313.44;5073097;27;20397;-81
2021/01/26 02:46:51;;;;;;;18.70;2.45;;;;;;;6.28;68.08;101326.59;5078408;27;20422;-82
2021/01/26 02:49:43;;;;;;;14.50;1.67;;;;;;;6.25;68.22;101328.31;5060678;28;20029;-82
2021/01/26 02:52:26;;;;;;;6.95;1.40;;;;;;;6.09;68.97;101345.75;5065973;28;20036;-81
2021/01/26 02:55:04;;;;;;;12.90;2.60;;;;;;;6.15;69.08;101344.03;5069710;28;20035;-81
2021/01/26 02:57:43;;;;;;;8.35;2.10;;;;;;;5.98;70.08;101340.38;5069457;28;20044;-81
2021/01/26 03:00:17;;;;;;;15.00;2.17;;;;;;;6.13;69.81;101347.53;5067934;28;20035;-81
2021/01/26 03:02:55;;;;;;;13.60;2.25;;;;;;;6.20;69.64;101343.22;5068780;28;20036;-81
2021/01/26 03:05:27;;;;;;;14.00;2.65;;;;;;;6.27;69.24;101348.50;5066984;28;20059;-82
2021/01/26 03:07:59;;;;;;;19.48;2.85;;;;;;;6.28;69.49;101350.28;5069679;28;20029;-82
2021/01/26 03:10:42;;;;;;;11.13;1.92;;;;;;;6.31;69.16;101350.28;5069215;28;20016;-81
2021/01/26 03:13:18;;;;;;;;;;;;;;;6.39;68.88;101347.72;5068906;28;20047;-81
2021/01/26 03:16:00;;;;;;;20.58;2.50;;;;;;;6.37;68.87;101354.72;5069131;28;19916;-81
2021/01/26 03:18:51;;;;;;;15.47;2.70;;;;;;;6.32;69.26;101348.53;5065267;28;20033;-83
2021/01/26 03:21:21;;;;;;;14.85;1.95;;;;;;;6.34;69.10;101353.81;5063457;28;20442;-81
2021/01/26 03:23:57;;;;;;;10.50;1.92;;;;;;;6.47;68.74;101351.25;5057212;28;20055;-81
2021/01/26 03:26:27;;;;;;;12.98;2.03;;;;;;;6.43;69.05;101367.00;5069147;28;20037;-81
2021/01/26 03:28:59;;;;;;;16.88;3.25;;;;;;;6.24;70.17;101373.94;5066155;28;20426;-81
2021/01/26 03:31:33;;;;;;;12.02;2.63;;;;;;;6.35;69.91;101372.22;5068982;28;20048;-81
2021/01/26 03:34:00;;;;;;;18.90;2.28;;;;;;;6.34;70.05;101377.50;5058625;28;20459;-81
2021/01/26 03:36:26;;;;;;;13.65;2.88;;;;;;;6.27;70.01;101382.72;5068961;28;20112;-81
2021/01/26 03:38:55;;;;;;;13.27;2.80;;;;;;;6.21;69.80;101380.06;5068674;28;20059;-81
2021/01/26 03:41:21;;;;;;;15.13;2.30;;;;;;;6.11;69.59;101389.63;5068919;28;20033;-81
2021/01/26 03:43:49;;;;;;;7.35;1.20;;;;;;;6.00;70.04;101386.03;5068819;28;20021;-81
2021/01/26 03:46:41;;;;;;;10.10;1.70;;;;;;;6.12;69.39;101391.41;5069009;28;20044;-81
2021/01/26 03:49:47;;;;;;;6.85;1.77;;;;;;;6.09;69.72;101391.38;5068557;28;20476;-81
2021/01/26 03:52:38;;;;;;;10.85;1.70;;;;;;;6.02;69.80;101400.09;5068671;28;20037;-81
2021/01/26 03:55:40;;;;;;;10.52;1.65;;;;;;;5.98;69.76;101408.78;5068612;28;20391;-81
2021/01/26 04:06:42;;;;;;;18.70;2.25;;;;;;;6.03;70.27;101407.13;5075989;27;20437;-81
2021/01/26 04:09:12;;;;;;;18.27;2.40;;;;;;;6.05;70.16;101412.38;5050584;28;20033;-80
2021/01/26 04:11:50;;;;;;;25.20;4.75;;;;;;;6.11;70.03;101389.63;5051883;28;20167;-80
2021/01/26 04:14:30;;;;;;;11.13;1.90;;;;;;;6.29;69.89;101398.50;5049658;28;20038;-80
2021/01/26 04:17:04;;;;;;;18.33;2.53;;;;;;;6.19;69.77;101408.09;5058003;28;20032;-80
2021/01/26 04:19:35;;;;;;;17.20;2.08;;;;;;;6.35;69.65;101406.44;5060464;28;20025;-80
2021/01/26 04:22:02;;;;;;;20.50;3.00;;;;;;;6.46;69.17;101419.69;5049934;28;20031;-81
2021/01/26 04:24:34;;;;;;;19.25;3.00;;;;;;;6.30;70.18;101432.72;5051075;28;20037;-80
2021/01/26 04:27:05;;;;;;;20.98;2.58;;;;;;;6.27;70.51;101426.59;5050529;28;20025;-81
2021/01/26 04:29:32;;;;;;;12.98;3.22;;;;;;;6.31;70.36;101438.91;5055284;28;20435;-80
2021/01/26 04:31:59;;;;;;;13.48;2.63;;;;;;;6.38;69.39;101447.69;5056906;28;20031;-81
2021/01/26 04:34:26;;;;;;;18.88;3.47;;;;;;;6.27;69.46;101447.66;5052681;28;20104;-81
2021/01/26 04:36:52;;;;;;;12.02;1.98;;;;;;;6.35;68.57;101450.31;5051677;28;20032;-80
2021/01/26 04:39:18;;;;;;;7.57;1.45;;;;;;;6.25;68.59;101449.38;5049354;28;20507;-81
2021/01/26 04:47:43;;;;;;;15.82;1.88;;;;;;;6.09;69.23;101454.53;5054823;28;20874;-81
2021/01/26 04:53:31;;;;;;;9.07;1.60;;;;;;;6.15;69.63;101467.69;5082440;27;20401;-80
2021/01/26 04:56:23;;;;;;;14.68;2.50;;;;;;;6.28;69.42;101468.69;5052076;28;20474;-81
2021/01/26 04:59:04;;;;;;;13.23;2.00;;;;;;;6.25;69.53;101480.94;5045917;28;20056;-81
2021/01/26 05:07:34;;;;;;;21.10;2.25;;;;;;;6.14;70.01;101483.47;5059095;27;20175;-80
2021/01/26 05:10:39;;;;;;;11.50;2.15;;;;;;;6.23;69.82;101483.56;5050567;28;20025;-80
2021/01/26 05:13:19;;;;;;;19.55;2.45;;;;;;;6.25;69.48;101488.84;5063860;28;20017;-80
2021/01/26 05:18:31;;;;;;;12.55;2.30;;;;;;;6.25;69.37;101492.34;5063230;28;20102;-78
2021/01/26 05:21:05;;;;;;;9.52;1.55;;;;;;;6.26;69.17;101487.97;5069771;28;20025;-85
2021/01/26 05:23:38;;;;;;;10.27;2.65;;;;;;;6.26;68.96;101487.97;5041082;28;20075;-78
2021/01/26 05:26:12;;;;;;;12.02;1.67;;;;;;;6.18;69.40;101482.66;5061223;28;20124;-86
2021/01/26 05:28:42;;;;;;;9.18;1.48;;;;;;;6.29;68.96;101501.16;5052690;28;20468;-84
2021/01/26 05:31:14;;;;;;;11.02;1.73;;;;;;;6.16;69.38;101494.91;5069634;28;20029;-84
2021/01/26 05:33:44;;;;;;;12.13;1.60;;;;;;;6.30;69.39;101495.03;5069027;28;20154;-79
2021/01/26 05:36:11;;;;;;;6.13;1.52;;;;;;;6.04;69.95;101510.59;5063747;28;20496;-78
2021/01/26 05:38:38;;;;;;;19.00;2.65;;;;;;;6.06;69.81;101501.84;5069370;28;20029;-78
2021/01/26 05:41:08;;;;;;;16.80;1.88;;;;;;;6.15;69.53;101501.91;5069563;28;20040;-82
2021/01/26 05:43:37;;;;;;;18.10;2.20;;;;;;;6.17;69.68;101508.94;5053226;28;20029;-79
2021/01/26 05:46:08;;;;;;;9.25;2.70;;;;;;;6.33;69.29;101502.97;5068418;28;20132;-79
2021/01/26 05:48:50;;;;;;;15.20;1.98;;;;;;;6.37;69.42;101504.75;5068810;28;20060;-79
2021/01/26 05:51:27;;;;;;;20.55;3.28;;;;;;;6.41;69.42;101511.78;5060731;28;20476;-80
2021/01/26 05:54:00;;;;;;;21.58;3.30;;;;;;;6.45;69.18;101516.19;5069073;28;20521;-82
2021/01/26 05:56:27;;;;;;;14.85;2.67;;;;;;;6.36;69.30;101524.03;5069030;28;20025;-79
2021/01/26 05:58:54;;;;;;;20.35;3.50;;;;;;;6.29;69.62;101519.56;5067614;28;20035;-78
2021/01/26 06:04:16;;;;;;;11.48;2.33;;;;;;;6.29;68.50;101540.63;5078735;27;20895;-81
2021/01/26 06:07:02;;;;;;;11.85;1.65;;;;;;;6.37;68.03;101541.59;5062245;28;20052;-78
2021/01/26 06:09:36;;;;;;;10.93;1.50;;;;;;;6.39;67.60;101544.22;5047726;28;20029;-76
2021/01/26 06:12:22;;;;;;;9.27;1.25;;;;;;;6.17;66.65;101551.03;5042129;28;20399;-78
2021/01/26 06:17:35;;;;;;;10.75;1.15;;;;;;;5.93;66.85;101568.31;5042806;27;765993;-83
2021/01/26 06:20:18;;;;;;;10.63;1.63;;;;;;;6.04;66.25;101563.19;5068873;28;20029;-81
2021/01/26 06:22:45;;;;;;;5.55;1.00;;;;;;;6.00;66.87;101564.91;5066005;28;20033;-80
2021/01/26 06:25:19;;;;;;;15.55;1.83;;;;;;;6.03;66.15;101569.31;5070256;28;20021;-79
2021/01/26 06:27:51;;;;;;;2.72;0.85;;;;;;;5.93;66.08;101565.69;5073130;28;20102;-79
2021/01/26 06:42:21;;;;;;;6.30;1.27;;;;;;;5.77;67.61;101580.41;5075744;27;763043;-78
2021/01/26 06:44:58;;;;;;;7.97;1.10;;;;;;;5.94;67.00;101584.13;5063534;28;20033;-79
2021/01/26 06:53:55;;;;;;;5.63;1.10;;;;;;;5.85;67.35;101609.44;5105559;27;20367;-78
2021/01/26 07:05:05;;;;;;;8.25;1.48;;;;;;;6.02;67.43;101626.31;5057490;28;20449;-78
2021/01/26 07:07:47;;;;;;;14.77;1.60;;;;;;;5.96;67.78;101631.47;5035169;28;20499;-79
2021/01/26 07:10:33;;;;;;;;;;;;;;;6.03;67.34;101633.38;5027630;28;20100;-78
2021/01/26 07:13:09;;;;;;;11.65;1.45;;;;;;;5.90;67.64;101641.94;5027930;28;19913;-79
2021/01/26 07:24:08;;;;;;;6.43;1.63;;;;;;;5.97;67.58;101657.81;5071549;27;20399;-80
2021/01/26 07:26:51;;;;;;;10.10;1.63;;;;;;;6.06;67.40;101658.81;5043234;28;20048;-79
2021/01/26 07:29:34;;;;;;;11.77;2.05;;;;;;;5.99;67.48;101664.00;5030359;28;20048;-82
2021/01/26 07:32:23;;;;;;;19.20;2.38;;;;;;;5.99;67.26;101673.63;5045691;28;20049;-79
2021/01/26 07:34:59;;;;;;;12.10;1.77;;;;;;;6.13;67.15;101674.69;5044368;28;20567;-81
2021/01/26 07:37:39;;;;;;;11.55;2.33;;;;;;;6.18;67.40;101684.38;5048623;28;20064;-79
2021/01/26 07:40:31;;;;;;;12.35;1.52;;;;;;;6.22;67.25;101683.53;5048937;28;20284;-79
2021/01/26 07:46:43;;;;;;;4.78;1.10;;;;;;;6.37;67.16;101691.63;5099965;27;20855;-79
2021/01/26 07:51:58;;;;;;;15.20;1.40;;;;;;;6.36;67.25;101692.47;5081936;27;20374;-80
2021/01/26 07:55:04;;;;;;;10.98;1.40;;;;;;;6.45;67.16;101703.09;5078119;28;20025;-81
2021/01/26 07:57:44;;;;;;;7.47;1.40;;;;;;;6.57;67.06;101704.13;5080130;28;20032;-81
2021/01/26 08:00:12;;;;;;;9.73;1.40;;;;;;;6.51;67.28;101712.81;5076345;28;20371;-80
2021/01/26 08:02:43;;;;;;;16.95;5.38;;;;;;;6.63;67.21;101704.19;5076561;28;20029;-80
2021/01/26 08:05:15;;;;;;;13.35;1.70;;;;;;;6.63;67.11;101720.84;5076918;28;20483;-80
2021/01/26 08:07:44;;;;;;;11.73;2.03;;;;;;;6.53;67.35;101720.72;5081967;28;20035;-85
2021/01/26 08:10:26;;;;;;;7.55;2.20;;;;;;;6.75;66.73;101713.94;5076479;28;20039;-88
2021/01/26 08:12:52;;;;;;;8.02;1.30;;;;;;;6.74;66.95;101722.72;5071606;28;20378;-88
2021/01/26 08:15:30;;;;;;;14.43;2.65;;;;;;;6.87;66.61;101724.59;5068764;28;20025;-81
2021/01/26 08:17:58;;;;;;;14.25;1.77;;;;;;;6.87;66.84;101723.72;5070819;28;20154;-81
2021/01/26 08:25:42;;;;;;;10.52;2.47;;;;;;;7.04;66.32;101732.69;5070922;28;20436;-79
2021/01/26 08:28:11;;;;;;;11.38;1.90;;;;;;;7.19;65.63;101733.66;5049306;28;20022;-80
2021/01/26 08:36:26;;;;;;;7.57;2.92;;;;;;;7.11;66.21;101752.91;5087669;27;20416;-82
2021/01/26 08:39:20;;;;;;;9.60;1.15;;;;;;;6.99;66.30;101755.47;5058065;28;20036;-81
2021/01/26 08:41:51;;;;;;;15.23;1.98;;;;;;;7.07;66.39;101764.31;5068678;28;20527;-87
2021/01/26 08:47:44;;;;;;;15.27;1.75;;;;;;;7.01;66.50;101772.16;5068556;27;20406;-81
2021/01/26 08:50:16;;;;;;;14.68;1.60;;;;;;;6.97;66.95;101779.16;5068527;28;20094;-80
2021/01/26 08:52:47;;;;;;;12.05;2.13;;;;;;;7.02;66.54;101781.84;5069451;28;20024;-81
2021/01/26 08:55:36;;;;;;;7.20;1.55;;;;;;;7.06;66.73;101786.25;5069417;28;20032;-82
2021/01/26 08:58:09;;;;;;;11.60;1.83;;;;;;;6.91;67.23;101794.88;5067490;28;20476;-85
2021/01/26 09:03:28;;;;;;;9.27;2.00;;;;;;;6.96;66.96;101810.75;5072936;28;20817;-82
2021/01/26 09:14:50;;;;;;;10.80;4.75;;;;;;;7.04;67.52;101824.00;5091054;27;20710;-82
2021/01/26 09:20:21;;;;;;;9.05;3.75;;;;;;;7.27;67.12;101821.59;5062848;28;20854;-82
2021/01/26 09:22:48;;;;;;;7.65;2.30;;;;;;;7.21;67.22;101832.97;5054062;28;20025;-82
2021/01/26 09:28:08;;;;;;;17.80;2.50;;;;;;;7.21;67.39;101840.00;5022554;28;20412;-82
2021/01/26 09:30:37;;;;;;;13.48;3.10;;;;;;;7.36;67.08;101845.41;5010814;28;20038;-80
2021/01/26 09:33:22;;;;;;;15.88;2.92;;;;;;;7.41;67.09;101843.72;5011614;28;20084;-80
2021/01/26 09:35:52;;;;;;;10.13;2.28;;;;;;;7.40;66.84;101844.59;5021878;28;20520;-82
2021/01/26 09:43:43;;;;;;;6.90;1.27;;;;;;;7.31;64.88;101867.34;5069750;27;20401;-82
2021/01/26 09:46:34;;;;;;;5.32;1.23;;;;;;;7.18;64.34;101861.03;5043606;28;20475;-81
2021/01/26 09:49:23;;;;;;;3.92;1.05;;;;;;;7.15;63.86;101866.28;5039457;28;20485;-82
2021/01/26 09:54:38;;;;;;;4.22;1.17;;;;;;;7.27;64.28;101862.03;5072693;27;20436;-82
2021/01/26 09:57:06;;;;;;;4.45;1.23;;;;;;;7.21;64.36;101869.00;5057245;28;20365;-83
2021/01/26 09:59:36;;;;;;;4.70;0.70;;;;;;;7.10;64.56;101875.03;5049370;28;20075;-82
2021/01/26 10:02:08;;;;;;;5.78;0.65;;;;;;;7.02;64.46;101867.91;5049158;28;20406;-82
2021/01/26 10:04:37;;;;;;;4.10;1.02;;;;;;;7.00;64.54;101882.81;5049375;28;20026;-83
2021/01/26 10:07:06;;;;;;;6.03;0.90;;;;;;;6.90;64.94;101879.19;5048132;28;20112;-81
2021/01/26 10:09:37;;;;;;;4.13;0.90;;;;;;;6.95;64.89;101888.03;5046757;28;20021;-82
2021/01/26 10:12:34;;;;;;;7.07;0.90;;;;;;;7.05;64.89;101883.75;5047994;28;20053;-82
2021/01/26 10:26:16;;;;;;;1.85;0.60;;;;;;;6.91;64.31;101891.50;5072926;28;20459;-81
2021/01/26 10:37:30;;;;;;;1.98;0.80;;;;;;;6.97;64.70;101891.56;5059384;28;20358;-82
2021/01/26 10:45:46;;;;;;;3.47;0.50;;;;;;;7.09;64.38;101899.63;5073713;27;20414;-81
2021/01/26 10:50:53;;;;;;;4.55;1.13;;;;;;;7.32;64.16;101896.34;5089483;28;21036;-83
2021/01/26 10:53:42;;;;;;;1.73;0.80;;;;;;;7.41;63.90;101895.56;5068953;28;20353;-81
2021/01/26 10:56:10;;;;;;;8.52;0.93;;;;;;;7.39;63.79;101908.72;5053922;28;20392;-82
2021/01/26 10:58:36;;;;;;;2.97;1.17;;;;;;;7.49;64.11;101908.81;5066104;28;20361;-82
2021/01/26 11:01:03;;;;;;;3.10;0.93;;;;;;;7.48;64.19;101902.66;5068087;28;20028;-82
2021/01/26 11:03:29;;;;;;;4.97;1.00;;;;;;;7.60;64.11;101901.88;5055314;28;20040;-81
2021/01/26 11:05:56;;;;;;;8.23;1.13;;;;;;;7.69;64.05;101894.06;5068285;28;20083;-82
2021/01/26 11:08:22;;;;;;;2.97;1.27;;;;;;;7.74;64.09;101899.41;5069337;28;20422;-82
2021/01/26 11:10:48;;;;;;;3.75;1.00;;;;;;;7.75;64.31;101891.47;5054105;28;20483;-81
2021/01/26 11:13:15;;;;;;;6.78;1.30;;;;;;;7.96;64.47;101883.72;5051016;28;20025;-83
2021/01/26 11:15:41;;;;;;;3.80;1.17;;;;;;;8.12;63.86;101885.59;5058409;28;20065;-82
2021/01/26 11:18:08;;;;;;;4.75;1.40;;;;;;;8.28;63.85;101880.44;5056332;28;20037;-81
2021/01/26 11:20:34;;;;;;;5.65;1.42;;;;;;;8.36;63.95;101873.44;5056003;28;20085;-83
2021/01/26 11:23:00;;;;;;;3.40;1.10;;;;;;;8.47;63.31;101876.16;5059355;28;20421;-82
2021/01/26 11:25:27;;;;;;;5.47;1.25;;;;;;;8.43;62.88;101881.38;5055283;28;20115;-83
2021/01/26 11:27:54;;;;;;;6.60;1.15;;;;;;;8.47;62.95;101873.53;5055971;28;20048;-82
2021/01/26 11:30:24;;;;;;;6.88;1.95;;;;;;;8.43;63.04;101884.03;5056113;28;20068;-81
2021/01/26 11:32:51;;;;;;;6.95;1.23;;;;;;;8.42;63.15;101884.03;5064974;28;20046;-81
2021/01/26 11:35:20;;;;;;;5.35;1.92;;;;;;;8.53;62.97;101884.13;5056970;28;20107;-81
2021/01/26 11:37:47;;;;;;;6.10;1.20;;;;;;;8.50;63.18;101886.72;5062379;28;20029;-81
2021/01/26 11:40:14;;;;;;;7.35;1.17;;;;;;;8.52;62.66;101885.00;5067721;28;20025;-82
2021/01/26 11:42:41;;;;;;;5.97;1.67;;;;;;;8.43;63.48;101889.31;5057219;28;20147;-82
2021/01/26 11:45:10;;;;;;;3.33;1.15;;;;;;;8.53;62.94;101878.84;5066050;28;20032;-87
2021/01/26 11:47:37;;;;;;;8.88;2.65;;;;;;;8.50;63.47;101881.44;5060449;28;20029;-82
2021/01/26 11:50:07;;;;;;;7.20;2.00;;;;;;;8.57;63.33;101883.25;5061294;28;20391;-82
2021/01/26 11:52:33;;;;;;;10.23;2.28;;;;;;;8.60;63.17;101883.28;5053819;28;20056;-82
2021/01/26 11:54:59;;;;;;;8.40;1.73;;;;;;;8.62;63.27;101884.16;5061969;28;20097;-81
2021/01/26 11:57:25;;;;;;;12.27;2.60;;;;;;;8.62;62.40;101881.50;5068329;28;20418;-81
2021/01/26 11:59:51;;;;;;;5.68;2.58;;;;;;;8.50;62.91;101870.88;5068351;28;20056;-82
2021/01/26 12:02:18;;;;;;;12.57;2.63;;;;;;;8.61;63.07;101874.50;5054645;28;20108;-82
2021/01/26 12:04:44;;;;;;;9.48;2.58;;;;;;;8.68;62.76;101878.91;5055207;28;20029;-81
2021/01/26 12:07:10;;;;;;;10.88;2.20;;;;;;;8.62;62.82;101873.59;5054993;28;20024;-82
2021/01/26 12:09:36;;;;;;;10.10;2.63;;;;;;;8.80;62.56;101874.53;5055058;28;20052;-82
2021/01/26 12:12:02;;;;;;;10.68;2.53;;;;;;;8.82;62.71;101875.44;5054721;28;20111;-81
2021/01/26 12:14:29;;;;;;;11.98;2.28;;;;;;;8.91;62.92;101872.84;5055219;28;20091;-81
2021/01/26 12:16:55;;;;;;;8.80;4.13;;;;;;;8.76;62.65;101872.78;5054908;28;20083;-82
2021/01/26 12:19:21;;;;;;;12.77;2.65;;;;;;;8.73;61.72;101879.84;5055008;28;20071;-82
2021/01/26 12:21:47;;;;;;;8.07;2.20;;;;;;;8.80;61.38;101874.53;5055069;28;20025;-82
2021/01/26 12:24:13;;;;;;;14.57;2.67;;;;;;;8.83;61.18;101872.78;5054655;28;20111;-82
2021/01/26 12:26:39;;;;;;;12.20;2.28;;;;;;;8.97;61.23;101869.31;5046031;28;20087;-82
2021/01/26 12:29:06;;;;;;;16.58;3.35;;;;;;;8.94;60.24;101870.19;5034875;28;20536;-82
2021/01/26 12:31:32;;;;;;;9.25;2.50;;;;;;;9.16;60.62;101867.59;5034794;28;20033;-82
2021/01/26 12:33:58;;;;;;;7.35;2.17;;;;;;;9.16;60.43;101867.59;5034911;28;20029;-82
2021/01/26 12:36:24;;;;;;;9.80;2.58;;;;;;;9.22;59.74;101862.34;5034383;28;20046;-82
2021/01/26 12:38:50;;;;;;;10.18;3.50;;;;;;;9.20;59.77;101866.75;5034898;28;20033;-82
2021/01/26 12:41:16;;;;;;;12.68;2.30;;;;;;;9.17;59.67;101865.00;5034680;28;20021;-82
2021/01/26 12:43:43;;;;;;;17.55;3.88;;;;;;;9.24;59.29;101863.22;5034618;28;20037;-82
2021/01/26 12:46:09;;;;;;;10.23;2.20;;;;;;;9.23;59.35;101864.09;5035103;28;20021;-82
2021/01/26 12:48:36;;;;;;;12.02;2.60;;;;;;;9.32;59.92;101861.50;5034190;28;20018;-82
2021/01/26 12:51:02;;;;;;;5.80;1.98;;;;;;;9.35;59.99;101856.19;5034707;28;20037;-82
2021/01/26 12:53:28;;;;;;;14.43;2.60;;;;;;;9.27;59.80;101865.00;5034325;28;20071;-82
2021/01/26 12:55:55;;;;;;;13.43;1.98;;;;;;;9.17;58.90;101872.03;5033039;28;20087;-82
2021/01/26 12:58:21;;;;;;;9.90;2.20;;;;;;;9.29;58.75;101861.47;5036422;28;20029;-82
2021/01/26 13:00:47;;;;;;;11.73;2.20;;;;;;;9.31;58.53;101862.38;5034481;28;20040;-80
2021/01/26 13:03:13;;;;;;;6.07;1.95;;;;;;;9.28;57.98;101872.06;5034529;28;20087;-80
2021/01/26 13:05:40;;;;;;;7.15;2.20;;;;;;;9.50;58.01;101879.13;5041764;28;20033;-82
2021/01/26 13:08:06;;;;;;;9.35;1.85;;;;;;;9.54;57.35;101869.44;5043550;28;20469;-81
2021/01/26 13:10:33;;;;;;;11.90;1.75;;;;;;;9.73;57.05;101862.38;5034250;28;20029;-81
2021/01/26 13:12:59;;;;;;;7.70;1.90;;;;;;;9.71;55.77;101861.53;5033078;28;20040;-81
2021/01/26 13:15:27;;;;;;;10.32;2.13;;;;;;;9.85;56.12;101872.09;5033967;28;20037;-81
2021/01/26 13:17:53;;;;;;;6.05;1.30;;;;;;;9.88;55.25;101864.13;5033987;28;20496;-81
2021/01/26 13:20:20;;;;;;;6.53;1.45;;;;;;;9.93;55.18;101857.09;5042438;28;20036;-81
2021/01/26 13:22:47;;;;;;;8.75;1.92;;;;;;;10.16;55.51;101858.81;5034176;28;20026;-81
2021/01/26 13:25:17;;;;;;;9.38;2.80;;;;;;;10.02;55.35;101862.38;5038288;28;20022;-81
2021/01/26 13:27:43;;;;;;;6.85;1.67;;;;;;;10.01;55.14;101865.03;5033575;28;20040;-81
2021/01/26 13:30:12;;;;;;;4.45;1.33;;;;;;;10.03;54.86;101853.56;5033749;28;20051;-82
2021/01/26 13:32:38;;;;;;;7.38;2.08;;;;;;;9.95;54.17;101871.19;5033696;28;20030;-81
2021/01/26 13:35:07;;;;;;;13.00;2.47;;;;;;;9.95;53.95;101871.19;5032331;28;20396;-81
2021/01/26 13:37:33;;;;;;;9.00;1.90;;;;;;;10.00;53.85;101855.31;5033367;28;20065;-81
2021/01/26 13:40:00;;;;;;;6.85;1.70;;;;;;;9.77;54.87;101869.47;5033520;28;20053;-82
2021/01/26 13:42:26;;;;;;;12.18;2.50;;;;;;;9.64;54.36;101875.63;5033758;28;20036;-81
2021/01/26 13:44:52;;;;;;;7.47;1.50;;;;;;;9.67;55.18;101871.22;5033600;28;20041;-81
2021/01/26 13:47:18;;;;;;;9.77;1.75;;;;;;;9.57;55.30;101887.06;5033533;28;20029;-81
2021/01/26 13:49:45;;;;;;;4.57;1.30;;;;;;;9.74;54.90;101881.81;5033323;28;20472;-81
2021/01/26 13:52:11;;;;;;;10.20;1.73;;;;;;;9.74;55.11;101881.81;5033332;28;20400;-82
2021/01/26 13:54:39;;;;;;;6.28;1.55;;;;;;;9.63;54.63;101885.34;5033444;28;20425;-82
2021/01/26 13:57:06;;;;;;;8.90;1.77;;;;;;;9.67;54.47;101881.81;5033094;28;20109;-82
2021/01/26 13:59:32;;;;;;;7.45;1.58;;;;;;;9.64;54.17;101896.78;5033342;28;20025;-82
2021/01/26 14:01:58;;;;;;;5.80;1.75;;;;;;;9.50;54.40;101900.28;5033088;28;20065;-81
2021/01/26 14:04:24;;;;;;;7.53;1.58;;;;;;;9.48;54.42;101910.03;5033316;28;20417;-82
2021/01/26 14:06:50;;;;;;;5.88;1.17;;;;;;;9.32;54.61;101913.47;5033028;28;20072;-81
2021/01/26 14:09:18;;;;;;;5.82;1.73;;;;;;;9.26;54.29;101917.00;5033262;28;20037;-81
2021/01/26 14:11:45;;;;;;;4.20;1.45;;;;;;;9.23;54.62;101911.69;5033361;28;20128;-81
2021/01/26 14:14:11;;;;;;;10.98;2.28;;;;;;;9.25;54.41;101909.09;5032918;28;20104;-81
2021/01/26 14:16:38;;;;;;;8.77;1.50;;;;;;;9.10;54.70;101912.53;5033637;28;20022;-82
2021/01/26 14:19:05;;;;;;;8.77;1.75;;;;;;;9.12;54.87;101898.47;5033327;28;20033;-82
2021/01/26 14:21:31;;;;;;;8.55;1.38;;;;;;;9.30;54.67;101892.34;5033432;28;20021;-82
2021/01/26 14:23:57;;;;;;;7.15;1.30;;;;;;;9.28;54.39;101895.84;5035039;28;20726;-83
2021/01/26 14:26:24;;;;;;;6.65;1.30;;;;;;;9.20;54.73;101902.00;5035203;28;20060;-81
2021/01/26 14:28:50;;;;;;;13.23;1.67;;;;;;;9.22;54.72;101894.06;5032749;28;20026;-81